sensor_id;sensor_type;location;lat;lon;timestamp;pressure;altitude;pressure_sealevel;temperature;humidity
50394;BME280;36308;46.312;25.288;2023-08-01T00:01:27;95809.03;;;17.78;74.81
50394;BME280;36308;46.312;25.288;2023-08-01T00:03:53;95803.91;;;17.77;75.23
50394;BME280;36308;46.312;25.288;2023-08-01T00:06:18;95798.75;;;17.75;75.08
50394;BME280;36308;46.312;25.288;2023-08-01T00:08:45;95805.31;;;17.74;75.23
50394;BME280;36308;46.312;25.288;2023-08-01T00:11:10;95802.13;;;17.72;75.12
50394;BME280;36308;46.312;25.288;2023-08-01T00:13:37;95802.72;;;17.69;75.13
50394;BME280;36308;46.312;25.288;2023-08-01T00:16:02;95808.16;;;17.69;75.29
50394;BME280;36308;46.312;25.288;2023-08-01T00:18:28;95814.22;;;17.66;75.40
50394;BME280;36308;46.312;25.288;2023-08-01T00:20:53;95809.88;;;17.65;75.16
50394;BME280;36308;46.312;25.288;2023-08-01T00:23:19;95809.38;;;17.63;75.32
50394;BME280;36308;46.312;25.288;2023-08-01T00:25:45;95801.84;;;17.60;75.52
50394;BME280;36308;46.312;25.288;2023-08-01T00:28:19;95812.22;;;17.58;75.18
50394;BME280;36308;46.312;25.288;2023-08-01T00:30:45;95805.19;;;17.57;75.43
50394;BME280;36308;46.312;25.288;2023-08-01T00:33:10;95800.88;;;17.56;75.29
50394;BME280;36308;46.312;25.288;2023-08-01T00:35:36;95800.38;;;17.54;75.28
50394;BME280;36308;46.312;25.288;2023-08-01T00:38:01;95789.50;;;17.54;75.42
50394;BME280;36308;46.312;25.288;2023-08-01T00:40:31;95790.09;;;17.51;75.30
50394;BME280;36308;46.312;25.288;2023-08-01T00:42:57;95784.66;;;17.51;75.50
50394;BME280;36308;46.312;25.288;2023-08-01T00:45:23;95786.88;;;17.49;75.44
50394;BME280;36308;46.312;25.288;2023-08-01T00:47:51;95777.25;;;17.43;75.42
50394;BME280;36308;46.312;25.288;2023-08-01T00:50:17;95779.34;;;17.46;75.36
50394;BME280;36308;46.312;25.288;2023-08-01T00:52:46;95785.41;;;17.43;75.44
50394;BME280;36308;46.312;25.288;2023-08-01T00:55:12;95788.13;;;17.43;75.37
50394;BME280;36308;46.312;25.288;2023-08-01T00:57:38;95781.88;;;17.42;75.66
50394;BME280;36308;46.312;25.288;2023-08-01T01:00:04;95777.06;;;17.39;75.61
50394;BME280;36308;46.312;25.288;2023-08-01T01:02:29;95776.25;;;17.38;75.57
50394;BME280;36308;46.312;25.288;2023-08-01T01:04:55;95775.44;;;17.38;75.58
50394;BME280;36308;46.312;25.288;2023-08-01T01:07:21;95773.03;;;17.36;75.47
50394;BME280;36308;46.312;25.288;2023-08-01T01:09:48;95769.03;;;17.34;75.67
50394;BME280;36308;46.312;25.288;2023-08-01T01:12:14;95772.03;;;17.32;75.88
50394;BME280;36308;46.312;25.288;2023-08-01T01:14:39;95769.66;;;17.31;75.90
50394;BME280;36308;46.312;25.288;2023-08-01T01:17:05;95771.53;;;17.30;75.90
50394;BME280;36308;46.312;25.288;2023-08-01T01:19:30;95767.25;;;17.29;76.02
50394;BME280;36308;46.312;25.288;2023-08-01T01:21:57;95765.63;;;17.28;76.22
50394;BME280;36308;46.312;25.288;2023-08-01T01:24:24;95761.00;;;17.29;75.99
50394;BME280;36308;46.312;25.288;2023-08-01T01:27:09;95762.09;;;17.28;76.33
50394;BME280;36308;46.312;25.288;2023-08-01T01:29:35;95754.75;;;17.28;76.34
50394;BME280;36308;46.312;25.288;2023-08-01T01:32:03;95749.81;;;17.30;76.41
50394;BME280;36308;46.312;25.288;2023-08-01T01:37:52;95751.44;;;17.31;76.27
50394;BME280;36308;46.312;25.288;2023-08-01T01:40:18;95752.53;;;17.30;76.76
50394;BME280;36308;46.312;25.288;2023-08-01T01:42:44;95752.53;;;17.30;76.89
50394;BME280;36308;46.312;25.288;2023-08-01T01:45:09;95755.25;;;17.30;76.52
50394;BME280;36308;46.312;25.288;2023-08-01T01:47:35;95753.66;;;17.29;76.71
50394;BME280;36308;46.312;25.288;2023-08-01T01:50:00;95754.75;;;17.28;76.64
50394;BME280;36308;46.312;25.288;2023-08-01T01:52:26;95748.22;;;17.29;76.59
50394;BME280;36308;46.312;25.288;2023-08-01T01:54:51;95747.09;;;17.30;76.60
50394;BME280;36308;46.312;25.288;2023-08-01T01:57:17;95746.59;;;17.28;76.60
50394;BME280;36308;46.312;25.288;2023-08-01T01:59:42;95760.19;;;17.28;76.69
50394;BME280;36308;46.312;25.288;2023-08-01T02:02:08;95759.09;;;17.29;76.55
50394;BME280;36308;46.312;25.288;2023-08-01T02:04:33;95755.56;;;17.29;76.55
50394;BME280;36308;46.312;25.288;2023-08-01T02:06:59;95754.75;;;17.28;76.34
50394;BME280;36308;46.312;25.288;2023-08-01T02:12:27;95749.16;;;17.25;76.38
50394;BME280;36308;46.312;25.288;2023-08-01T02:14:57;95752.16;;;17.23;76.18
50394;BME280;36308;46.312;25.288;2023-08-01T02:17:22;95758.19;;;17.20;76.39
50394;BME280;36308;46.312;25.288;2023-08-01T02:19:48;95753.88;;;17.19;76.05
50394;BME280;36308;46.312;25.288;2023-08-01T02:22:13;95754.97;;;17.18;76.26
50394;BME280;36308;46.312;25.288;2023-08-01T02:24:39;95751.75;;;17.16;76.33
50394;BME280;36308;46.312;25.288;2023-08-01T02:27:04;95753.69;;;17.15;76.37
50394;BME280;36308;46.312;25.288;2023-08-01T02:29:30;95750.19;;;17.15;76.29
50394;BME280;36308;46.312;25.288;2023-08-01T02:31:55;95751.28;;;17.14;76.32
50394;BME280;36308;46.312;25.288;2023-08-01T02:34:21;95748.56;;;17.14;76.49
50394;BME280;36308;46.312;25.288;2023-08-01T02:36:47;95745.03;;;17.13;76.73
50394;BME280;36308;46.312;25.288;2023-08-01T02:39:12;95737.53;;;17.10;76.70
50394;BME280;36308;46.312;25.288;2023-08-01T02:41:38;95740.72;;;17.12;76.60
50394;BME280;36308;46.312;25.288;2023-08-01T02:44:03;95745.34;;;17.12;76.77
50394;BME280;36308;46.312;25.288;2023-08-01T02:46:29;95738.31;;;17.11;76.72
50394;BME280;36308;46.312;25.288;2023-08-01T02:48:55;95744.53;;;17.11;77.14
50394;BME280;36308;46.312;25.288;2023-08-01T02:51:20;95737.19;;;17.12;76.96
50394;BME280;36308;46.312;25.288;2023-08-01T02:53:46;95733.38;;;17.13;77.25
50394;BME280;36308;46.312;25.288;2023-08-01T02:56:11;95720.59;;;17.13;77.04
50394;BME280;36308;46.312;25.288;2023-08-01T02:58:37;95720.59;;;17.13;77.09
50394;BME280;36308;46.312;25.288;2023-08-01T03:01:06;95715.97;;;17.14;77.08
50394;BME280;36308;46.312;25.288;2023-08-01T03:03:35;95721.38;;;17.14;77.11
50394;BME280;36308;46.312;25.288;2023-08-01T03:06:01;95722.22;;;17.14;77.02
50394;BME280;36308;46.312;25.288;2023-08-01T03:08:26;95731.47;;;17.13;76.85
50394;BME280;36308;46.312;25.288;2023-08-01T03:10:54;95723.81;;;17.15;76.86
50394;BME280;36308;46.312;25.288;2023-08-01T03:13:20;95727.31;;;17.16;76.91
50394;BME280;36308;46.312;25.288;2023-08-01T03:15:46;95727.31;;;17.16;76.90
50394;BME280;36308;46.312;25.288;2023-08-01T03:18:11;95727.03;;;17.17;76.96
50394;BME280;36308;46.312;25.288;2023-08-01T03:20:37;95738.69;;;17.18;77.20
50394;BME280;36308;46.312;25.288;2023-08-01T03:23:03;95740.31;;;17.19;77.00
50394;BME280;36308;46.312;25.288;2023-08-01T03:25:29;95732.66;;;17.21;77.15
50394;BME280;36308;46.312;25.288;2023-08-01T03:43:57;95756.69;;;17.14;79.27
50394;BME280;36308;46.312;25.288;2023-08-01T03:46:22;95759.03;;;17.21;78.50
50394;BME280;36308;46.312;25.288;2023-08-01T03:48:48;95755.88;;;17.27;78.31
50394;BME280;36308;46.312;25.288;2023-08-01T03:51:13;95760.69;;;17.30;78.04
50394;BME280;36308;46.312;25.288;2023-08-01T03:53:40;95772.88;;;17.33;77.48
50394;BME280;36308;46.312;25.288;2023-08-01T03:56:07;95769.53;;;17.36;77.34
50394;BME280;36308;46.312;25.288;2023-08-01T03:58:32;95748.72;;;17.31;77.47
50394;BME280;36308;46.312;25.288;2023-08-01T04:00:58;95759.94;;;17.38;76.89
50394;BME280;36308;46.312;25.288;2023-08-01T04:03:23;95762.66;;;17.38;76.83
50394;BME280;36308;46.312;25.288;2023-08-01T04:05:49;95769.22;;;17.37;76.71
50394;BME280;36308;46.312;25.288;2023-08-01T04:08:14;95774.66;;;17.37;76.70
50394;BME280;36308;46.312;25.288;2023-08-01T04:10:40;95765.22;;;17.35;76.68
50394;BME280;36308;46.312;25.288;2023-08-01T04:13:05;95762.78;;;17.33;76.47
50394;BME280;36308;46.312;25.288;2023-08-01T04:15:31;95765.81;;;17.32;76.44
50394;BME280;36308;46.312;25.288;2023-08-01T04:17:56;95774.66;;;17.37;76.48
50394;BME280;36308;46.312;25.288;2023-08-01T04:20:22;95777.06;;;17.39;76.42
50394;BME280;36308;46.312;25.288;2023-08-01T04:22:47;95782.19;;;17.41;76.36
50394;BME280;36308;46.312;25.288;2023-08-01T04:25:13;95766.59;;;17.32;76.40
50394;BME280;36308;46.312;25.288;2023-08-01T04:27:38;95788.59;;;17.45;76.75
50394;BME280;36308;46.312;25.288;2023-08-01T04:30:04;95778.06;;;17.43;76.80
50394;BME280;36308;46.312;25.288;2023-08-01T04:32:48;95767.00;;;17.40;76.62
50394;BME280;36308;46.312;25.288;2023-08-01T04:35:14;95789.00;;;17.52;76.88
50394;BME280;36308;46.312;25.288;2023-08-01T04:37:39;95784.06;;;17.54;76.97
50394;BME280;36308;46.312;25.288;2023-08-01T04:40:05;95778.00;;;17.57;76.67
50394;BME280;36308;46.312;25.288;2023-08-01T04:42:31;95791.47;;;17.62;76.71
50394;BME280;36308;46.312;25.288;2023-08-01T04:44:57;95766.13;;;17.53;76.59
50394;BME280;36308;46.312;25.288;2023-08-01T04:47:22;95778.88;;;17.66;76.47
50394;BME280;36308;46.312;25.288;2023-08-01T04:49:48;95778.25;;;17.69;76.49
50394;BME280;36308;46.312;25.288;2023-08-01T04:52:13;95752.44;;;17.58;76.66
50394;BME280;36308;46.312;25.288;2023-08-01T04:54:39;95787.78;;;17.81;76.46
50394;BME280;36308;46.312;25.288;2023-08-01T04:57:05;95782.00;;;17.82;76.33
50394;BME280;36308;46.312;25.288;2023-08-01T04:59:30;95793.59;;;17.88;76.26
50394;BME280;36308;46.312;25.288;2023-08-01T05:01:56;95784.34;;;17.89;76.16
50394;BME280;36308;46.312;25.288;2023-08-01T05:04:21;95771.84;;;17.88;75.99
50394;BME280;36308;46.312;25.288;2023-08-01T05:06:47;95786.28;;;17.97;75.64
50394;BME280;36308;46.312;25.288;2023-08-01T05:09:12;95778.13;;;17.97;75.50
50394;BME280;36308;46.312;25.288;2023-08-01T05:11:38;95797.53;;;18.04;75.51
50394;BME280;36308;46.312;25.288;2023-08-01T05:14:03;95774.78;;;18.00;75.37
50394;BME280;36308;46.312;25.288;2023-08-01T05:16:29;95787.66;;;18.08;75.29
50394;BME280;36308;46.312;25.288;2023-08-01T05:18:54;95788.63;;;18.12;75.03
50394;BME280;36308;46.312;25.288;2023-08-01T05:21:20;95787.00;;;18.11;74.81
50394;BME280;36308;46.312;25.288;2023-08-01T05:23:45;95790.41;;;18.17;74.66
50394;BME280;36308;46.312;25.288;2023-08-01T05:26:11;95787.38;;;18.18;74.47
50394;BME280;36308;46.312;25.288;2023-08-01T05:28:36;95785.16;;;18.21;74.26
50394;BME280;36308;46.312;25.288;2023-08-01T05:31:02;95781.94;;;18.18;73.96
50394;BME280;36308;46.312;25.288;2023-08-01T05:33:27;95779.72;;;18.21;73.94
50394;BME280;36308;46.312;25.288;2023-08-01T05:35:53;95772.03;;;18.23;73.88
50394;BME280;36308;46.312;25.288;2023-08-01T05:38:18;95763.56;;;18.24;73.90
50394;BME280;36308;46.312;25.288;2023-08-01T05:40:44;95766.94;;;18.30;73.93
50394;BME280;36308;46.312;25.288;2023-08-01T05:43:09;95755.06;;;18.26;73.73
50394;BME280;36308;46.312;25.288;2023-08-01T05:45:35;95769.53;;;18.35;73.79
50394;BME280;36308;46.312;25.288;2023-08-01T05:48:01;95753.81;;;18.32;73.79
50394;BME280;36308;46.312;25.288;2023-08-01T05:50:27;95760.72;;;18.38;73.84
50394;BME280;36308;46.312;25.288;2023-08-01T05:52:52;95767.03;;;18.47;73.71
50394;BME280;36308;46.312;25.288;2023-08-01T05:55:18;95778.25;;;18.54;73.41
50394;BME280;36308;46.312;25.288;2023-08-01T05:57:44;95773.78;;;18.58;73.38
50394;BME280;36308;46.312;25.288;2023-08-01T06:00:10;95776.22;;;18.69;73.07
50394;BME280;36308;46.312;25.288;2023-08-01T06:02:36;95758.59;;;18.66;72.87
50394;BME280;36308;46.312;25.288;2023-08-01T06:05:02;95778.03;;;18.82;72.89
50394;BME280;36308;46.312;25.288;2023-08-01T06:07:28;95773.25;;;18.88;72.59
50394;BME280;36308;46.312;25.288;2023-08-01T06:09:55;95773.91;;;18.93;72.54
50394;BME280;36308;46.312;25.288;2023-08-01T06:12:20;95773.63;;;19.04;72.07
50394;BME280;36308;46.312;25.288;2023-08-01T06:14:46;95767.50;;;19.07;72.12
50394;BME280;36308;46.312;25.288;2023-08-01T06:17:13;95773.13;;;19.10;72.15
50394;BME280;36308;46.312;25.288;2023-08-01T06:19:39;95770.09;;;19.12;72.25
50394;BME280;36308;46.312;25.288;2023-08-01T06:22:04;95770.41;;;19.19;72.16
50394;BME280;36308;46.312;25.288;2023-08-01T06:24:49;95776.22;;;19.26;71.96
50394;BME280;36308;46.312;25.288;2023-08-01T06:27:15;95776.53;;;19.33;71.90
50394;BME280;36308;46.312;25.288;2023-08-01T06:29:41;95776.03;;;19.40;72.03
50394;BME280;36308;46.312;25.288;2023-08-01T06:32:07;95772.84;;;19.47;72.13
50394;BME280;36308;46.312;25.288;2023-08-01T06:34:32;95765.63;;;19.51;72.03
50394;BME280;36308;46.312;25.288;2023-08-01T06:36:58;95766.59;;;19.55;71.81
50394;BME280;36308;46.312;25.288;2023-08-01T06:39:23;95774.94;;;19.67;71.78
50394;BME280;36308;46.312;25.288;2023-08-01T06:41:49;95773.16;;;19.71;71.50
50394;BME280;36308;46.312;25.288;2023-08-01T06:44:14;95779.09;;;19.73;71.47
50394;BME280;36308;46.312;25.288;2023-08-01T06:46:39;95771.56;;;19.79;71.39
50394;BME280;36308;46.312;25.288;2023-08-01T06:49:05;95772.03;;;19.81;71.05
50394;BME280;36308;46.312;25.288;2023-08-01T06:51:31;95773.31;;;19.84;71.35
50394;BME280;36308;46.312;25.288;2023-08-01T06:53:58;95752.66;;;19.74;70.85
50394;BME280;36308;46.312;25.288;2023-08-01T06:56:23;95765.94;;;19.93;70.83
50394;BME280;36308;46.312;25.288;2023-08-01T06:58:49;95763.69;;;19.95;70.84
50394;BME280;36308;46.312;25.288;2023-08-01T07:01:15;95758.50;;;20.02;70.93
50394;BME280;36308;46.312;25.288;2023-08-01T07:03:40;95769.75;;;20.09;70.91
50394;BME280;36308;46.312;25.288;2023-08-01T07:06:06;95765.06;;;20.18;70.76
50394;BME280;36308;46.312;25.288;2023-08-01T07:08:31;95762.28;;;20.27;70.73
50394;BME280;36308;46.312;25.288;2023-08-01T07:10:58;95752.16;;;20.36;70.18
50394;BME280;36308;46.312;25.288;2023-08-01T07:13:25;95744.59;;;20.42;70.12
50394;BME280;36308;46.312;25.288;2023-08-01T07:15:50;95751.94;;;20.50;70.04
50394;BME280;36308;46.312;25.288;2023-08-01T07:18:16;95754.97;;;20.57;69.94
50394;BME280;36308;46.312;25.288;2023-08-01T07:20:42;95752.53;;;20.65;70.28
50394;BME280;36308;46.312;25.288;2023-08-01T07:23:07;95745.09;;;20.74;70.26
50394;BME280;36308;46.312;25.288;2023-08-01T07:25:33;95749.41;;;20.84;70.07
50394;BME280;36308;46.312;25.288;2023-08-01T07:27:58;95749.81;;;20.94;69.75
50394;BME280;36308;46.312;25.288;2023-08-01T07:30:24;95749.44;;;21.05;68.96
50394;BME280;36308;46.312;25.288;2023-08-01T07:32:49;95751.78;;;21.15;68.78
50394;BME280;36308;46.312;25.288;2023-08-01T07:35:15;95757.16;;;21.24;68.48
50394;BME280;36308;46.312;25.288;2023-08-01T07:37:40;95766.91;;;21.33;68.12
50394;BME280;36308;46.312;25.288;2023-08-01T07:40:07;95765.22;;;21.41;68.03
50394;BME280;36308;46.312;25.288;2023-08-01T07:42:33;95746.25;;;21.45;67.43
50394;BME280;36308;46.312;25.288;2023-08-01T07:44:58;95760.47;;;21.59;67.16
50394;BME280;36308;46.312;25.288;2023-08-01T07:47:24;95767.94;;;21.71;66.94
50394;BME280;36308;46.312;25.288;2023-08-01T07:49:51;95768.50;;;21.76;66.66
50394;BME280;36308;46.312;25.288;2023-08-01T07:52:17;95763.28;;;21.84;66.13
50394;BME280;36308;46.312;25.288;2023-08-01T07:54:42;95757.59;;;21.89;65.92
50394;BME280;36308;46.312;25.288;2023-08-01T07:57:08;95755.13;;;21.96;65.58
50394;BME280;36308;46.312;25.288;2023-08-01T07:59:33;95760.28;;;22.10;65.44
50394;BME280;36308;46.312;25.288;2023-08-01T08:01:59;95760.22;;;22.18;64.94
50394;BME280;36308;46.312;25.288;2023-08-01T08:04:24;95753.88;;;22.27;64.81
50394;BME280;36308;46.312;25.288;2023-08-01T08:06:50;95760.50;;;22.38;64.83
50394;BME280;36308;46.312;25.288;2023-08-01T08:09:17;95751.84;;;22.48;64.21
50394;BME280;36308;46.312;25.288;2023-08-01T08:11:42;95759.72;;;22.62;63.73
50394;BME280;36308;46.312;25.288;2023-08-01T08:14:08;95754.59;;;22.73;64.06
50394;BME280;36308;46.312;25.288;2023-08-01T08:16:34;95757.22;;;22.82;63.67
50394;BME280;36308;46.312;25.288;2023-08-01T08:18:59;95757.53;;;22.92;63.67
50394;BME280;36308;46.312;25.288;2023-08-01T08:21:25;95750.94;;;23.06;63.41
50394;BME280;36308;46.312;25.288;2023-08-01T08:23:50;95748.19;;;23.18;62.83
50394;BME280;36308;46.312;25.288;2023-08-01T08:26:16;95747.69;;;23.28;62.39
50394;BME280;36308;46.312;25.288;2023-08-01T08:28:41;95751.09;;;23.37;62.06
50394;BME280;36308;46.312;25.288;2023-08-01T08:31:08;95750.63;;;23.48;61.66
50394;BME280;36308;46.312;25.288;2023-08-01T08:33:33;95746.47;;;23.54;61.37
50394;BME280;36308;46.312;25.288;2023-08-01T08:35:59;95741.63;;;23.63;60.12
50394;BME280;36308;46.312;25.288;2023-08-01T08:38:24;95749.03;;;23.75;59.85
50394;BME280;36308;46.312;25.288;2023-08-01T08:43:31;95746.53;;;23.98;59.64
50394;BME280;36308;46.312;25.288;2023-08-01T08:45:57;95744.00;;;24.05;59.34
50394;BME280;36308;46.312;25.288;2023-08-01T08:48:25;95742.31;;;24.16;58.91
50394;BME280;36308;46.312;25.288;2023-08-01T08:50:52;95746.59;;;24.30;59.22
50394;BME280;36308;46.312;25.288;2023-08-01T08:53:18;95744.56;;;24.43;58.31
50394;BME280;36308;46.312;25.288;2023-08-01T08:55:45;95740.59;;;24.56;58.22
50394;BME280;36308;46.312;25.288;2023-08-01T08:58:10;95731.91;;;24.70;57.71
50394;BME280;36308;46.312;25.288;2023-08-01T09:00:36;95736.16;;;24.83;56.66
50394;BME280;36308;46.312;25.288;2023-08-01T09:03:06;95732.50;;;24.95;56.31
50394;BME280;36308;46.312;25.288;2023-08-01T09:05:37;95731.75;;;25.14;55.02
50394;BME280;36308;46.312;25.288;2023-08-01T09:08:09;95731.31;;;25.28;54.28
50394;BME280;36308;46.312;25.288;2023-08-01T09:10:37;95730.34;;;25.39;55.35
50394;BME280;36308;46.312;25.288;2023-08-01T09:13:02;95731.44;;;25.54;54.14
50394;BME280;36308;46.312;25.288;2023-08-01T09:15:28;95722.25;;;25.66;53.29
50394;BME280;36308;46.312;25.288;2023-08-01T09:17:55;95724.84;;;25.78;53.21
50394;BME280;36308;46.312;25.288;2023-08-01T09:20:29;95721.88;;;25.87;52.81
50394;BME280;36308;46.312;25.288;2023-08-01T09:22:55;95722.97;;;26.02;52.34
50394;BME280;36308;46.312;25.288;2023-08-01T09:25:30;95712.19;;;26.16;53.37
50394;BME280;36308;46.312;25.288;2023-08-01T09:27:56;95704.63;;;26.33;53.36
50394;BME280;36308;46.312;25.288;2023-08-01T09:30:22;95704.56;;;26.52;52.39
50394;BME280;36308;46.312;25.288;2023-08-01T09:32:52;95692.63;;;26.68;50.89
50394;BME280;36308;46.312;25.288;2023-08-01T09:35:17;95697.50;;;26.78;50.76
50394;BME280;36308;46.312;25.288;2023-08-01T09:37:43;95693.19;;;26.80;50.62
50394;BME280;36308;46.312;25.288;2023-08-01T09:40:10;95686.56;;;26.85;50.82
50394;BME280;36308;46.312;25.288;2023-08-01T09:42:39;95692.25;;;26.96;51.08
50394;BME280;36308;46.312;25.288;2023-08-01T09:45:11;95693.25;;;27.11;50.53
50394;BME280;36308;46.312;25.288;2023-08-01T09:47:37;95688.66;;;27.22;50.22
50394;BME280;36308;46.312;25.288;2023-08-01T09:50:03;95680.94;;;27.31;49.58
50394;BME280;36308;46.312;25.288;2023-08-01T09:52:32;95692.91;;;27.42;48.75
50394;BME280;36308;46.312;25.288;2023-08-01T09:54:58;95674.88;;;27.52;48.54
50394;BME280;36308;46.312;25.288;2023-08-01T09:57:28;95675.41;;;27.65;48.84
50394;BME280;36308;46.312;25.288;2023-08-01T09:59:56;95685.44;;;27.80;48.44
50394;BME280;36308;46.312;25.288;2023-08-01T10:02:24;95680.16;;;27.98;47.88
50394;BME280;36308;46.312;25.288;2023-08-01T10:04:52;95666.88;;;28.15;47.53
50394;BME280;36308;46.312;25.288;2023-08-01T10:07:23;95660.72;;;28.32;46.84
50394;BME280;36308;46.312;25.288;2023-08-01T10:09:49;95660.03;;;28.46;46.98
50394;BME280;36308;46.312;25.288;2023-08-01T10:12:17;95660.97;;;28.61;46.71
50394;BME280;36308;46.312;25.288;2023-08-01T10:14:44;95650.78;;;28.76;46.29
50394;BME280;36308;46.312;25.288;2023-08-01T10:17:10;95649.72;;;28.91;46.70
50394;BME280;36308;46.312;25.288;2023-08-01T10:19:37;95645.09;;;29.10;46.97
50394;BME280;36308;46.312;25.288;2023-08-01T10:22:04;95637.66;;;29.25;46.64
50394;BME280;36308;46.312;25.288;2023-08-01T10:24:31;95631.34;;;29.31;46.22
50394;BME280;36308;46.312;25.288;2023-08-01T10:26:56;95633.81;;;29.47;44.85
50394;BME280;36308;46.312;25.288;2023-08-01T10:29:34;95638.59;;;29.57;44.18
50394;BME280;36308;46.312;25.288;2023-08-01T10:32:00;95635.81;;;29.61;44.43
50394;BME280;36308;46.312;25.288;2023-08-01T10:34:25;95633.06;;;29.68;43.38
50394;BME280;36308;46.312;25.288;2023-08-01T10:36:55;95631.94;;;29.76;43.43
50394;BME280;36308;46.312;25.288;2023-08-01T10:39:22;95626.41;;;29.87;43.13
50394;BME280;36308;46.312;25.288;2023-08-01T10:41:57;95621.25;;;29.96;43.16
50394;BME280;36308;46.312;25.288;2023-08-01T10:44:24;95614.16;;;30.06;42.70
50394;BME280;36308;46.312;25.288;2023-08-01T10:49:16;95618.13;;;30.27;42.86
50394;BME280;36308;46.312;25.288;2023-08-01T10:51:43;95612.22;;;30.35;41.72
50394;BME280;36308;46.312;25.288;2023-08-01T10:54:26;95602.28;;;30.38;41.42
50394;BME280;36308;46.312;25.288;2023-08-01T10:56:54;95606.25;;;30.51;41.37
50394;BME280;36308;46.312;25.288;2023-08-01T10:59:21;95606.63;;;30.60;41.48
50394;BME280;36308;46.312;25.288;2023-08-01T11:01:49;95591.16;;;30.67;41.22
50394;BME280;36308;46.312;25.288;2023-08-01T11:06:46;95586.75;;;30.83;40.74
50394;BME280;36308;46.312;25.288;2023-08-01T11:09:30;95586.38;;;30.99;41.39
50394;BME280;36308;46.312;25.288;2023-08-01T11:11:58;95584.31;;;31.14;40.81
50394;BME280;36308;46.312;25.288;2023-08-01T11:14:26;95586.66;;;31.23;40.73
50394;BME280;36308;46.312;25.288;2023-08-01T11:16:57;95583.03;;;31.40;40.51
50394;BME280;36308;46.312;25.288;2023-08-01T11:19:28;95579.38;;;31.58;39.95
50394;BME280;36308;46.312;25.288;2023-08-01T11:21:54;95580.50;;;31.71;40.01
50394;BME280;36308;46.312;25.288;2023-08-01T11:24:25;95575.63;;;31.86;39.79
50394;BME280;36308;46.312;25.288;2023-08-01T11:26:53;95585.06;;;31.96;39.32
50394;BME280;36308;46.312;25.288;2023-08-01T11:29:19;95585.84;;;32.04;39.30
50394;BME280;36308;46.312;25.288;2023-08-01T11:31:55;95572.31;;;32.09;38.34
50394;BME280;36308;46.312;25.288;2023-08-01T11:34:21;95577.03;;;32.16;38.95
50394;BME280;36308;46.312;25.288;2023-08-01T11:36:47;95569.47;;;32.16;38.10
50394;BME280;36308;46.312;25.288;2023-08-01T11:39:14;95565.03;;;32.22;38.75
50394;BME280;36308;46.312;25.288;2023-08-01T11:41:41;95565.38;;;32.32;38.42
50394;BME280;36308;46.312;25.288;2023-08-01T11:44:07;95564.50;;;32.38;37.54
50394;BME280;36308;46.312;25.288;2023-08-01T11:46:34;95564.09;;;32.40;36.74
50394;BME280;36308;46.312;25.288;2023-08-01T11:49:01;95567.28;;;32.42;36.38
50394;BME280;36308;46.312;25.288;2023-08-01T11:51:28;95554.56;;;32.41;34.98
50394;BME280;36308;46.312;25.288;2023-08-01T11:54:03;95550.19;;;32.40;35.41
50394;BME280;36308;46.312;25.288;2023-08-01T11:56:30;95547.41;;;32.40;35.75
50394;BME280;36308;46.312;25.288;2023-08-01T11:58:56;95542.63;;;32.44;35.73
50394;BME280;36308;46.312;25.288;2023-08-01T12:01:22;95546.56;;;32.43;35.25
50394;BME280;36308;46.312;25.288;2023-08-01T12:03:52;95543.31;;;32.52;34.58
50394;BME280;36308;46.312;25.288;2023-08-01T12:06:21;95544.09;;;32.56;34.59
50394;BME280;36308;46.312;25.288;2023-08-01T12:08:51;95534.47;;;32.64;35.18
50394;BME280;36308;46.312;25.288;2023-08-01T12:11:21;95534.41;;;32.71;34.83
50394;BME280;36308;46.312;25.288;2023-08-01T12:13:47;95518.44;;;32.79;35.67
50394;BME280;36308;46.312;25.288;2023-08-01T12:16:13;95526.56;;;32.93;35.96
50394;BME280;36308;46.312;25.288;2023-08-01T12:18:45;95527.63;;;33.07;35.29
50394;BME280;36308;46.312;25.288;2023-08-01T12:21:12;95519.94;;;33.18;35.27
50394;BME280;36308;46.312;25.288;2023-08-01T12:23:38;95516.69;;;33.23;33.37
50394;BME280;36308;46.312;25.288;2023-08-01T12:26:04;95507.88;;;33.28;33.33
50394;BME280;36308;46.312;25.288;2023-08-01T12:28:30;95518.19;;;33.31;33.47
50394;BME280;36308;46.312;25.288;2023-08-01T12:30:55;95517.34;;;33.34;33.48
50394;BME280;36308;46.312;25.288;2023-08-01T12:33:24;95514.50;;;33.38;33.56
50394;BME280;36308;46.312;25.288;2023-08-01T12:35:49;95501.00;;;33.36;33.47
50394;BME280;36308;46.312;25.288;2023-08-01T12:38:15;95512.78;;;33.48;32.65
50394;BME280;36308;46.312;25.288;2023-08-01T12:40:41;95504.72;;;33.53;32.44
50394;BME280;36308;46.312;25.288;2023-08-01T12:43:06;95502.25;;;33.59;32.93
50394;BME280;36308;46.312;25.288;2023-08-01T12:45:32;95500.22;;;33.63;32.15
50394;BME280;36308;46.312;25.288;2023-08-01T12:47:58;95492.69;;;33.60;31.24
50394;BME280;36308;46.312;25.288;2023-08-01T12:50:23;95491.03;;;33.66;29.69
50394;BME280;36308;46.312;25.288;2023-08-01T12:52:49;95487.88;;;33.64;29.23
50394;BME280;36308;46.312;25.288;2023-08-01T12:55:14;95484.66;;;33.66;29.38
50394;BME280;36308;46.312;25.288;2023-08-01T12:57:40;95479.91;;;33.66;30.15
50394;BME280;36308;46.312;25.288;2023-08-01T13:00:06;95476.63;;;33.71;30.75
50394;BME280;36308;46.312;25.288;2023-08-01T13:02:31;95474.56;;;33.75;31.15
50394;BME280;36308;46.312;25.288;2023-08-01T13:04:57;95479.41;;;33.71;30.67
50394;BME280;36308;46.312;25.288;2023-08-01T13:07:22;95468.75;;;33.66;30.18
50394;BME280;36308;46.312;25.288;2023-08-01T13:09:48;95462.44;;;33.62;30.35
50394;BME280;36308;46.312;25.288;2023-08-01T13:12:13;95459.25;;;33.60;30.72
50394;BME280;36308;46.312;25.288;2023-08-01T13:14:39;95465.66;;;33.57;30.85
50394;BME280;36308;46.312;25.288;2023-08-01T13:17:05;95464.16;;;33.52;31.24